Time;durP1;ratioP1;P1;durP2;ratioP2;P2;SDS_P1;SDS_P2;PMS_P1;PMS_P2;Temp;Humidity;BMP_temperature;BMP_pressure;BME280_temperature;BME280_humidity;BME280_pressure;Samples;Min_cycle;Max_cycle;Signal;HPM_P1;HPM_P2
2021/12/09 00:01:37;;;;;;;20.33;13.43;;;3.10;99.90;;;;;;4938453;29;20020;-76
2021/12/09 00:04:07;;;;;;;21.60;13.18;;;3.10;99.90;;;;;;4924438;29;20311;-75
2021/12/09 00:06:35;;;;;;;22.60;13.13;;;3.20;99.90;;;;;;4922595;29;20303;-76
2021/12/09 00:09:08;;;;;;;22.83;14.25;;;3.10;99.90;;;;;;4923086;29;20024;-75
2021/12/09 00:11:42;;;;;;;20.63;13.07;;;3.20;99.90;;;;;;4922446;29;20031;-76
2021/12/09 00:14:09;;;;;;;23.08;12.65;;;3.20;99.90;;;;;;4924296;29;20136;-76
2021/12/09 00:16:35;;;;;;;23.35;13.25;;;3.20;99.90;;;;;;4922399;29;20020;-78
2021/12/09 00:19:01;;;;;;;22.90;13.38;;;3.30;99.90;;;;;;4922680;29;20024;-79
2021/12/09 00:21:27;;;;;;;23.23;14.27;;;3.20;99.90;;;;;;4922656;29;20026;-77
2021/12/09 00:23:52;;;;;;;20.73;13.05;;;3.30;99.90;;;;;;4922109;29;20028;-77
2021/12/09 00:26:18;;;;;;;22.55;13.88;;;3.30;99.90;;;;;;4923639;29;20088;-77
2021/12/09 00:28:44;;;;;;;25.70;13.80;;;3.30;99.90;;;;;;4922285;29;20219;-75
2021/12/09 00:31:10;;;;;;;22.23;13.27;;;3.30;99.90;;;;;;4922329;29;20044;-76
2021/12/09 00:33:41;;;;;;;21.75;13.00;;;3.40;99.90;;;;;;4937804;29;20024;-75
2021/12/09 00:36:08;;;;;;;26.65;14.93;;;3.30;99.90;;;;;;4923366;29;20279;-76
2021/12/09 00:38:36;;;;;;;22.15;14.32;;;3.30;99.90;;;;;;4923215;29;20020;-75
2021/12/09 00:41:11;;;;;;;24.75;14.00;;;3.30;99.90;;;;;;4922188;29;20024;-76
2021/12/09 00:43:38;;;;;;;23.60;14.63;;;3.20;99.90;;;;;;4922969;29;20059;-77
2021/12/09 00:46:05;;;;;;;27.30;14.80;;;3.20;99.90;;;;;;4923923;29;20020;-76
2021/12/09 00:48:32;;;;;;;24.02;14.48;;;3.20;99.90;;;;;;4922857;29;20031;-76
2021/12/09 00:50:59;;;;;;;26.65;15.43;;;3.20;99.90;;;;;;4922301;29;20063;-76
2021/12/09 00:53:25;;;;;;;24.90;14.85;;;3.10;99.90;;;;;;4923512;29;20039;-76
2021/12/09 00:55:53;;;;;;;25.25;14.82;;;3.10;99.90;;;;;;4921402;29;20099;-78
2021/12/09 00:58:19;;;;;;;25.30;15.48;;;3.20;99.90;;;;;;4923415;29;20031;-78
2021/12/09 01:00:44;;;;;;;26.90;15.27;;;3.20;99.90;;;;;;4922937;29;20244;-78
2021/12/09 01:03:10;;;;;;;30.05;18.02;;;3.10;99.90;;;;;;4921833;29;20028;-79
2021/12/09 01:05:36;;;;;;;32.20;18.45;;;3.00;99.90;;;;;;4922752;29;20028;-78
2021/12/09 01:08:03;;;;;;;29.67;17.60;;;2.90;99.90;;;;;;4923356;29;20394;-76
2021/12/09 01:10:29;;;;;;;31.25;18.35;;;2.90;99.90;;;;;;4922671;29;20155;-75
2021/12/09 01:12:56;;;;;;;38.90;19.60;;;3.00;99.90;;;;;;4921710;29;20239;-75
2021/12/09 01:15:22;;;;;;;33.47;19.33;;;3.00;99.90;;;;;;4923119;29;20040;-76
2021/12/09 01:17:49;;;;;;;35.75;20.23;;;2.90;99.90;;;;;;4922628;29;20098;-76
2021/12/09 01:20:17;;;;;;;35.53;20.73;;;2.90;99.90;;;;;;4922077;29;20024;-77
2021/12/09 01:22:45;;;;;;;37.63;20.45;;;2.80;99.90;;;;;;4920766;29;20031;-76
2021/12/09 01:25:17;;;;;;;38.50;22.25;;;2.80;99.90;;;;;;4921776;29;20028;-76
2021/12/09 01:27:45;;;;;;;39.13;20.90;;;2.80;99.90;;;;;;4921380;29;20027;-76
2021/12/09 01:30:15;;;;;;;42.67;22.27;;;2.80;99.90;;;;;;4922711;29;20048;-76
2021/12/09 01:32:48;;;;;;;40.25;21.92;;;2.70;99.90;;;;;;4922234;29;20036;-77
2021/12/09 01:35:15;;;;;;;40.10;22.67;;;2.80;99.90;;;;;;4922851;29;20028;-77
2021/12/09 01:37:41;;;;;;;42.13;24.30;;;2.70;99.90;;;;;;4921091;29;20103;-76
2021/12/09 01:40:08;;;;;;;41.22;24.15;;;2.70;99.90;;;;;;4921571;29;20031;-73
2021/12/09 01:42:34;;;;;;;45.80;25.58;;;2.80;99.90;;;;;;4921871;29;20338;-75
2021/12/09 01:45:00;;;;;;;46.75;25.83;;;2.70;99.90;;;;;;4922699;29;20361;-74
2021/12/09 01:47:26;;;;;;;49.10;25.40;;;2.60;99.90;;;;;;4922674;29;20024;-75
2021/12/09 01:49:52;;;;;;;46.03;25.77;;;2.60;99.90;;;;;;4921748;29;20034;-74
2021/12/09 01:52:18;;;;;;;51.40;26.98;;;2.60;99.90;;;;;;4922685;29;20437;-75
2021/12/09 01:54:43;;;;;;;46.40;25.90;;;2.60;99.90;;;;;;4936504;29;20024;-75
2021/12/09 01:57:09;;;;;;;47.05;27.50;;;2.50;99.90;;;;;;4936792;29;20059;-73
2021/12/09 01:59:35;;;;;;;51.90;27.73;;;2.50;99.90;;;;;;4920800;29;20032;-73
2021/12/09 02:02:01;;;;;;;50.72;27.60;;;2.40;99.90;;;;;;4920841;29;20096;-78
2021/12/09 02:04:27;;;;;;;55.80;29.42;;;2.40;99.90;;;;;;4921591;29;20024;-78
2021/12/09 02:06:53;;;;;;;53.08;28.90;;;2.40;99.90;;;;;;4921503;29;20048;-78
2021/12/09 02:09:19;;;;;;;52.83;28.75;;;2.40;99.90;;;;;;4922089;29;20035;-79
2021/12/09 02:11:46;;;;;;;56.05;29.27;;;2.30;99.90;;;;;;4921829;29;20024;-79
2021/12/09 02:14:12;;;;;;;61.33;30.17;;;2.30;99.90;;;;;;4921896;29;20035;-78
2021/12/09 02:16:38;;;;;;;57.45;30.27;;;2.30;99.90;;;;;;4921780;29;20315;-77
2021/12/09 02:19:04;;;;;;;53.10;29.08;;;2.30;99.90;;;;;;4922364;29;20035;-77
2021/12/09 02:21:33;;;;;;;55.40;30.27;;;2.30;99.90;;;;;;4920940;29;20024;-78
2021/12/09 02:24:03;;;;;;;;;;;2.30;99.90;;;;;;4922592;29;20024;-78
2021/12/09 02:26:35;;;;;;;57.30;29.27;;;2.30;99.90;;;;;;4922251;29;19987;-79
2021/12/09 02:29:04;;;;;;;56.33;29.88;;;2.40;99.90;;;;;;4922286;29;20040;-78
2021/12/09 02:31:32;;;;;;;57.63;31.00;;;2.30;99.90;;;;;;4920680;29;20067;-78
2021/12/09 02:33:58;;;;;;;58.30;30.90;;;2.30;99.90;;;;;;4921107;29;20024;-77
2021/12/09 02:36:24;;;;;;;54.30;31.15;;;2.30;99.90;;;;;;4924749;29;20031;-75
2021/12/09 02:38:50;;;;;;;58.97;32.40;;;2.40;99.90;;;;;;4923738;29;20027;-75
2021/12/09 02:41:20;;;;;;;63.80;31.50;;;2.30;99.90;;;;;;4924581;29;20024;-76
2021/12/09 02:43:49;;;;;;;62.15;32.58;;;2.30;99.90;;;;;;4924853;29;20051;-76
2021/12/09 02:46:16;;;;;;;64.53;33.28;;;2.30;99.90;;;;;;4924528;29;20028;-76
2021/12/09 02:48:42;;;;;;;64.60;31.45;;;2.20;99.90;;;;;;4924739;29;20334;-77
2021/12/09 02:51:08;;;;;;;56.95;32.35;;;2.30;99.90;;;;;;4925400;29;20274;-79
2021/12/09 02:53:34;;;;;;;60.75;32.28;;;2.30;99.90;;;;;;4924912;29;20323;-78
2021/12/09 02:56:00;;;;;;;65.38;33.88;;;2.30;99.90;;;;;;4925458;29;20028;-78
2021/12/09 02:58:26;;;;;;;56.47;30.60;;;2.20;99.90;;;;;;4924485;29;20058;-76
2021/12/09 03:00:54;;;;;;;64.60;33.33;;;2.20;99.90;;;;;;4924631;29;20028;-77
2021/12/09 03:03:20;;;;;;;60.70;32.47;;;2.20;99.90;;;;;;4924168;29;20107;-77
2021/12/09 03:05:46;;;;;;;65.43;33.92;;;2.20;99.90;;;;;;4939346;29;20219;-77
2021/12/09 03:08:19;;;;;;;65.90;33.00;;;2.20;99.90;;;;;;4924051;29;20027;-78
2021/12/09 03:10:46;;;;;;;64.97;32.88;;;2.20;99.90;;;;;;4924794;29;20016;-75
2021/12/09 03:13:12;;;;;;;66.03;32.08;;;2.10;99.90;;;;;;4923969;29;20094;-77
2021/12/09 03:15:38;;;;;;;70.38;32.17;;;2.10;99.90;;;;;;4924329;29;20248;-76
2021/12/09 03:18:04;;;;;;;63.95;34.50;;;2.10;99.90;;;;;;4939598;29;20416;-76
2021/12/09 03:20:29;;;;;;;63.15;34.15;;;2.10;99.90;;;;;;4923727;29;20019;-76
2021/12/09 03:22:55;;;;;;;69.60;33.58;;;2.10;99.90;;;;;;4923171;29;20310;-77
2021/12/09 03:25:22;;;;;;;65.72;33.20;;;2.10;99.90;;;;;;4923789;29;20024;-77
2021/12/09 03:27:48;;;;;;;73.72;33.90;;;2.10;99.90;;;;;;4924078;29;20032;-78
2021/12/09 03:30:17;;;;;;;70.30;34.75;;;2.00;99.90;;;;;;4923148;29;20051;-78
2021/12/09 03:32:43;;;;;;;75.65;35.22;;;2.10;99.90;;;;;;4924234;29;20076;-77
2021/12/09 03:35:12;;;;;;;70.45;34.50;;;2.00;99.90;;;;;;4924257;29;20028;-79
2021/12/09 03:37:38;;;;;;;69.45;34.28;;;2.00;99.90;;;;;;4924378;29;20023;-78
2021/12/09 03:40:06;;;;;;;72.85;34.90;;;2.00;99.90;;;;;;4923472;29;20068;-77
2021/12/09 03:42:33;;;;;;;82.10;37.10;;;2.00;99.90;;;;;;4924071;29;20031;-78
2021/12/09 03:45:00;;;;;;;72.90;35.72;;;1.90;99.90;;;;;;4924271;29;20115;-76
2021/12/09 03:47:29;;;;;;;69.88;36.30;;;2.00;99.90;;;;;;4924315;29;20028;-76
2021/12/09 03:49:56;;;;;;;79.35;36.60;;;2.00;99.90;;;;;;4922807;29;20107;-76
2021/12/09 03:52:22;;;;;;;80.32;35.97;;;2.00;99.90;;;;;;4923160;29;20039;-76
2021/12/09 03:54:48;;;;;;;79.60;36.88;;;2.00;99.90;;;;;;4923861;29;20095;-76
2021/12/09 03:57:15;;;;;;;70.95;34.53;;;2.00;99.90;;;;;;4924251;29;20087;-76
2021/12/09 03:59:42;;;;;;;72.80;34.92;;;2.00;99.90;;;;;;4923617;29;20031;-77
2021/12/09 04:02:08;;;;;;;72.97;36.55;;;2.00;99.90;;;;;;4922948;29;20326;-77
2021/12/09 04:04:33;;;;;;;77.63;36.53;;;2.00;99.90;;;;;;4922514;29;20076;-77
2021/12/09 04:06:59;;;;;;;81.35;37.45;;;2.00;99.90;;;;;;4923599;29;20028;-77
2021/12/09 04:09:25;;;;;;;77.30;36.10;;;1.90;99.90;;;;;;4922892;29;20044;-78
2021/12/09 04:11:52;;;;;;;76.80;35.53;;;1.90;99.90;;;;;;4938062;29;20051;-78
2021/12/09 04:14:19;;;;;;;75.65;35.13;;;2.00;99.90;;;;;;4922942;29;20147;-77
2021/12/09 04:16:46;;;;;;;81.18;36.85;;;1.90;99.90;;;;;;4922335;29;20099;-80
2021/12/09 04:19:12;;;;;;;78.78;38.03;;;2.00;99.90;;;;;;4923885;29;20024;-80
2021/12/09 04:21:39;;;;;;;67.95;35.63;;;2.00;99.90;;;;;;4921947;29;20024;-79
2021/12/09 04:24:10;;;;;;;76.93;35.33;;;2.10;99.90;;;;;;4924078;29;20055;-79
2021/12/09 04:26:41;;;;;;;74.95;36.90;;;2.10;99.90;;;;;;4922082;29;20027;-78
2021/12/09 04:29:08;;;;;;;70.22;34.78;;;2.10;99.90;;;;;;4922762;29;20020;-78
2021/12/09 04:31:35;;;;;;;76.63;36.15;;;2.10;99.90;;;;;;4923351;29;20207;-77
2021/12/09 04:34:01;;;;;;;72.13;36.10;;;2.10;99.90;;;;;;4923632;29;20024;-79
2021/12/09 04:36:28;;;;;;;70.53;34.13;;;2.10;99.90;;;;;;4923145;29;20024;-79
2021/12/09 04:38:55;;;;;;;73.80;35.27;;;2.00;99.90;;;;;;4922122;29;20023;-79
2021/12/09 04:41:22;;;;;;;70.25;35.38;;;2.00;99.90;;;;;;4922073;29;20099;-79
2021/12/09 04:43:48;;;;;;;66.45;34.40;;;2.00;99.90;;;;;;4922945;29;20028;-77
2021/12/09 04:46:15;;;;;;;78.65;35.35;;;2.00;99.90;;;;;;4923137;29;20032;-78
2021/12/09 04:48:41;;;;;;;70.43;34.60;;;2.00;99.90;;;;;;4922921;29;20187;-79
2021/12/09 04:51:07;;;;;;;71.25;34.35;;;2.00;99.90;;;;;;4923383;29;20075;-79
2021/12/09 04:53:33;;;;;;;68.85;34.40;;;2.00;99.90;;;;;;4923088;29;20059;-79
2021/12/09 04:55:59;;;;;;;71.00;37.05;;;2.00;99.90;;;;;;4937932;29;20032;-79
2021/12/09 04:58:26;;;;;;;73.22;34.47;;;2.00;99.90;;;;;;4920701;29;20020;-79
2021/12/09 05:00:54;;;;;;;70.95;34.33;;;1.90;99.90;;;;;;4921705;29;20044;-77
2021/12/09 05:03:20;;;;;;;72.05;34.20;;;1.90;99.90;;;;;;4923017;29;20061;-77
2021/12/09 05:05:49;;;;;;;66.97;33.75;;;1.90;99.90;;;;;;4921670;29;20028;-77
2021/12/09 05:08:17;;;;;;;73.00;34.78;;;1.80;99.90;;;;;;4922095;29;20052;-77
2021/12/09 05:10:54;;;;;;;66.60;34.50;;;1.90;99.90;;;;;;4921445;29;20023;-78
2021/12/09 05:13:22;;;;;;;66.53;33.90;;;1.90;99.90;;;;;;4923274;29;20062;-78
2021/12/09 05:15:49;;;;;;;76.90;35.90;;;1.80;99.90;;;;;;4921448;29;20051;-79
2021/12/09 05:18:16;;;;;;;67.38;32.38;;;1.90;99.90;;;;;;4922611;29;20027;-79
2021/12/09 05:20:43;;;;;;;69.72;34.60;;;1.80;99.90;;;;;;4922868;29;20489;-76
2021/12/09 05:23:09;;;;;;;70.15;32.92;;;1.90;99.90;;;;;;4937593;29;20024;-77
2021/12/09 05:25:35;;;;;;;60.53;31.92;;;1.80;99.90;;;;;;4922503;29;20064;-76
2021/12/09 05:28:01;;;;;;;68.65;33.25;;;1.80;99.90;;;;;;4921796;29;20035;-76
2021/12/09 05:30:38;;;;;;;67.63;31.90;;;1.90;99.90;;;;;;4920981;29;20048;-77
2021/12/09 05:33:06;;;;;;;68.15;32.10;;;1.90;99.90;;;;;;4923128;29;20059;-77
2021/12/09 05:35:33;;;;;;;66.70;33.30;;;1.80;99.90;;;;;;4922234;29;20043;-78
2021/12/09 05:37:58;;;;;;;61.90;32.05;;;1.80;99.90;;;;;;4921749;29;20023;-78
2021/12/09 05:40:25;;;;;;;70.20;31.42;;;1.80;99.90;;;;;;4922233;29;20024;-78
2021/12/09 05:42:51;;;;;;;70.40;32.47;;;1.80;99.90;;;;;;4922500;29;20028;-79
2021/12/09 05:45:16;;;;;;;59.95;31.65;;;1.90;99.90;;;;;;4921586;29;20087;-79
2021/12/09 05:47:42;;;;;;;63.53;31.17;;;1.90;99.90;;;;;;4922020;29;20144;-78
2021/12/09 05:50:11;;;;;;;58.65;30.17;;;1.90;99.90;;;;;;4921580;29;20146;-79
2021/12/09 05:52:37;;;;;;;57.17;30.73;;;1.90;99.90;;;;;;4920810;29;20071;-77
2021/12/09 05:55:03;;;;;;;58.17;30.65;;;1.90;99.90;;;;;;4922517;29;20031;-76
2021/12/09 05:57:29;;;;;;;64.13;30.35;;;1.90;99.90;;;;;;4920276;29;20024;-78
2021/12/09 05:59:55;;;;;;;58.63;29.63;;;1.90;99.90;;;;;;4922503;29;20020;-79
2021/12/09 06:02:21;;;;;;;56.05;29.30;;;1.90;99.90;;;;;;4921029;29;20196;-77
2021/12/09 06:04:47;;;;;;;55.50;29.63;;;1.90;99.90;;;;;;4921558;29;20031;-76
2021/12/09 06:07:14;;;;;;;59.25;29.85;;;1.80;99.90;;;;;;4921451;29;20048;-77
2021/12/09 06:09:40;;;;;;;54.58;29.27;;;1.80;99.90;;;;;;4922243;29;20072;-76
2021/12/09 06:12:07;;;;;;;51.38;27.65;;;1.80;99.90;;;;;;4926028;29;20020;-74
2021/12/09 06:14:33;;;;;;;58.03;30.20;;;1.80;99.90;;;;;;4925555;29;20026;-75
2021/12/09 06:16:58;;;;;;;56.30;28.10;;;1.80;99.90;;;;;;4923330;29;20322;-81
2021/12/09 06:19:24;;;;;;;51.65;28.33;;;1.80;99.90;;;;;;4924528;29;20199;-77
2021/12/09 06:21:50;;;;;;;56.30;29.00;;;1.90;99.90;;;;;;4925664;29;20027;-74
2021/12/09 06:24:18;;;;;;;52.45;28.02;;;1.90;99.90;;;;;;4926186;29;20019;-70
2021/12/09 06:26:44;;;;;;;51.88;27.67;;;1.80;99.90;;;;;;4922840;29;20039;-75
2021/12/09 06:29:10;;;;;;;52.05;27.65;;;1.90;99.90;;;;;;4925022;29;20093;-75
2021/12/09 06:31:36;;;;;;;52.75;28.10;;;1.90;99.90;;;;;;4924234;29;20070;-75
2021/12/09 06:34:02;;;;;;;53.60;27.45;;;1.90;99.90;;;;;;4923933;29;20333;-77
2021/12/09 06:36:27;;;;;;;52.60;27.27;;;1.90;99.90;;;;;;4923600;29;20024;-76
2021/12/09 06:38:53;;;;;;;59.38;29.15;;;1.90;99.90;;;;;;4925760;29;20051;-80
2021/12/09 06:41:19;;;;;;;51.08;27.13;;;1.90;99.90;;;;;;4925037;29;20024;-79
2021/12/09 06:43:45;;;;;;;47.20;25.67;;;1.90;99.90;;;;;;4923651;29;20055;-75
2021/12/09 06:46:12;;;;;;;49.58;25.45;;;1.90;99.90;;;;;;4923950;29;20028;-77
2021/12/09 06:48:39;;;;;;;58.08;27.50;;;1.90;99.90;;;;;;4939129;29;20468;-78
2021/12/09 06:51:08;;;;;;;50.63;25.95;;;1.90;99.90;;;;;;4925530;29;20028;-79
2021/12/09 06:53:35;;;;;;;49.00;24.60;;;1.90;99.90;;;;;;4925293;29;20024;-79
2021/12/09 06:56:02;;;;;;;48.47;26.40;;;1.90;99.90;;;;;;4924350;29;20040;-80
2021/12/09 06:58:28;;;;;;;55.60;32.45;;;1.90;99.90;;;;;;4923566;29;20096;-78
2021/12/09 07:00:55;;;;;;;47.55;25.67;;;1.80;99.90;;;;;;4939387;29;20028;-76
2021/12/09 07:03:22;;;;;;;48.75;25.92;;;1.90;99.90;;;;;;4924214;29;20027;-81
2021/12/09 07:05:53;;;;;;;45.80;25.05;;;1.90;99.90;;;;;;4924325;29;20036;-77
2021/12/09 07:08:20;;;;;;;45.83;25.17;;;1.80;99.90;;;;;;4924870;29;20034;-76
2021/12/09 07:10:48;;;;;;;43.47;24.83;;;1.90;99.90;;;;;;4939490;29;20080;-72
2021/12/09 07:13:14;;;;;;;45.08;24.25;;;1.90;99.90;;;;;;4924572;29;20054;-72
2021/12/09 07:15:40;;;;;;;51.28;26.13;;;1.90;99.90;;;;;;4925256;29;20028;-73
2021/12/09 07:18:06;;;;;;;47.25;26.38;;;1.90;99.90;;;;;;4924817;29;20184;-74
2021/12/09 07:20:33;;;;;;;43.65;24.23;;;1.90;99.90;;;;;;4924599;29;20035;-75
2021/12/09 07:22:59;;;;;;;52.63;26.52;;;2.00;99.90;;;;;;4923927;29;20363;-74
2021/12/09 07:25:28;;;;;;;48.13;24.55;;;2.00;99.90;;;;;;4923867;29;20055;-72
2021/12/09 07:27:54;;;;;;;42.00;23.60;;;2.00;99.90;;;;;;4924395;29;20299;-74
2021/12/09 07:30:22;;;;;;;41.03;22.65;;;2.00;99.90;;;;;;4923491;29;20112;-73
2021/12/09 07:35:33;;;;;;;42.17;22.45;;;2.00;99.90;;;;;;4924594;29;20087;-76
2021/12/09 07:38:01;;;;;;;41.47;23.88;;;2.00;99.90;;;;;;4925111;29;20028;-76
2021/12/09 07:40:27;;;;;;;42.85;22.90;;;2.00;99.90;;;;;;4938957;29;20295;-78
2021/12/09 07:42:53;;;;;;;42.35;24.63;;;2.00;99.90;;;;;;4923078;29;20038;-75
2021/12/09 07:45:19;;;;;;;43.78;22.30;;;2.00;99.90;;;;;;4939103;29;20315;-72
2021/12/09 07:47:46;;;;;;;40.08;22.40;;;2.00;99.90;;;;;;4914508;29;20020;-71
2021/12/09 07:50:14;;;;;;;39.05;23.17;;;2.00;99.90;;;;;;4922951;29;20087;-72
2021/12/09 07:52:41;;;;;;;;;;;2.00;99.90;;;;;;4919125;29;20032;-74
2021/12/09 07:55:08;;;;;;;38.38;22.23;;;2.00;99.90;;;;;;4918534;29;20123;-74
2021/12/09 07:57:35;;;;;;;45.78;24.35;;;2.00;99.90;;;;;;4918877;29;20051;-73
2021/12/09 08:00:01;;;;;;;44.28;25.15;;;2.00;99.90;;;;;;4915165;29;20020;-74
2021/12/09 08:02:27;;;;;;;44.33;25.77;;;2.00;99.90;;;;;;4915619;29;20332;-73
2021/12/09 08:04:53;;;;;;;46.83;26.15;;;2.00;99.90;;;;;;4922889;29;20120;-74
2021/12/09 08:07:19;;;;;;;50.75;25.08;;;2.00;99.90;;;;;;4938630;29;20046;-74
2021/12/09 08:09:44;;;;;;;50.10;26.33;;;1.90;99.90;;;;;;4923730;29;20115;-73
2021/12/09 08:12:10;;;;;;;42.28;24.13;;;1.90;99.90;;;;;;4923639;29;20028;-73
2021/12/09 08:14:36;;;;;;;45.42;24.65;;;1.90;99.90;;;;;;4921901;29;20098;-74
2021/12/09 08:17:22;;;;;;;44.60;24.02;;;1.90;99.90;;;;;;4923456;29;20047;-74
2021/12/09 08:19:47;;;;;;;45.08;22.98;;;1.90;99.90;;;;;;4923477;29;20302;-74
2021/12/09 08:22:14;;;;;;;41.65;24.13;;;1.90;99.90;;;;;;4922635;29;20382;-74
2021/12/09 08:24:39;;;;;;;42.90;23.55;;;1.90;99.90;;;;;;4923603;29;20312;-73
2021/12/09 08:27:05;;;;;;;44.75;22.92;;;1.90;99.90;;;;;;4921886;29;20180;-73
2021/12/09 08:29:31;;;;;;;57.55;31.92;;;1.90;99.90;;;;;;4922458;29;20064;-73
2021/12/09 08:31:56;;;;;;;43.95;22.75;;;2.00;99.90;;;;;;4922780;29;20027;-74
2021/12/09 08:34:23;;;;;;;40.72;22.88;;;1.90;99.90;;;;;;4921500;29;20307;-73
2021/12/09 08:36:49;;;;;;;44.88;23.85;;;2.00;99.90;;;;;;4937484;29;20030;-73
2021/12/09 08:39:15;;;;;;;50.45;24.75;;;1.90;99.90;;;;;;4923308;29;20028;-73
2021/12/09 08:41:42;;;;;;;49.28;23.90;;;1.90;99.90;;;;;;4921426;29;20043;-71
2021/12/09 08:44:08;;;;;;;167.35;37.15;;;2.00;99.90;;;;;;4923289;29;20076;-73
2021/12/09 08:46:34;;;;;;;45.58;24.35;;;1.90;99.90;;;;;;4922486;29;20027;-72
2021/12/09 08:49:00;;;;;;;45.35;23.75;;;2.00;99.90;;;;;;4923107;29;20024;-71
2021/12/09 08:51:25;;;;;;;45.33;23.55;;;1.90;99.90;;;;;;4921511;29;20020;-72
2021/12/09 08:53:53;;;;;;;40.20;22.83;;;2.00;99.90;;;;;;4922126;29;20073;-73
2021/12/09 08:56:19;;;;;;;32.53;19.38;;;2.00;99.90;;;;;;4921758;29;20294;-72
2021/12/09 08:58:45;;;;;;;35.10;20.33;;;2.00;99.90;;;;;;4922308;29;20067;-73
2021/12/09 09:01:12;;;;;;;39.25;22.88;;;2.00;99.90;;;;;;4922888;29;20024;-73
2021/12/09 09:03:38;;;;;;;34.75;20.77;;;2.00;99.90;;;;;;4921055;29;20104;-76
2021/12/09 09:06:04;;;;;;;39.55;19.65;;;2.00;99.90;;;;;;4937355;29;20030;-73
2021/12/09 09:08:29;;;;;;;31.08;17.15;;;2.10;99.90;;;;;;4921983;29;20024;-72
2021/12/09 09:10:55;;;;;;;28.58;17.48;;;2.10;99.90;;;;;;4921703;29;20062;-73
2021/12/09 09:13:21;;;;;;;31.98;17.40;;;2.10;99.90;;;;;;4920389;29;20032;-72
2021/12/09 09:15:48;;;;;;;27.95;17.00;;;2.10;99.90;;;;;;4921128;29;20044;-73
2021/12/09 09:18:15;;;;;;;27.00;16.50;;;2.20;99.90;;;;;;4920991;29;20024;-70
2021/12/09 09:20:41;;;;;;;30.90;18.95;;;2.20;99.90;;;;;;4920520;29;20103;-70
2021/12/09 09:23:10;;;;;;;32.67;18.45;;;2.20;99.90;;;;;;4922341;29;20028;-71
2021/12/09 09:25:36;;;;;;;30.33;17.05;;;2.20;99.90;;;;;;4921493;29;20020;-71
2021/12/09 09:28:02;;;;;;;28.67;16.80;;;2.20;99.90;;;;;;4921693;29;20028;-71
2021/12/09 09:30:35;;;;;;;26.67;16.83;;;2.10;99.90;;;;;;4921035;29;20044;-70
2021/12/09 09:33:02;;;;;;;33.00;16.83;;;2.20;99.90;;;;;;4919319;29;20319;-70
2021/12/09 09:35:29;;;;;;;28.67;17.08;;;2.20;99.90;;;;;;4915129;29;20331;-69
2021/12/09 09:37:54;;;;;;;29.95;16.65;;;2.10;99.90;;;;;;4922008;29;20016;-69
2021/12/09 09:40:40;;;;;;;28.58;16.35;;;2.10;99.90;;;;;;4921694;29;20024;-66
2021/12/09 09:43:25;;;;;;;28.95;17.25;;;2.10;99.90;;;;;;4921944;29;20024;-68
2021/12/09 09:45:52;;;;;;;30.08;16.50;;;2.10;99.90;;;;;;4920133;29;20320;-68
2021/12/09 09:48:19;;;;;;;28.88;17.45;;;2.10;99.90;;;;;;4921597;29;20046;-69
2021/12/09 09:50:45;;;;;;;28.08;15.75;;;2.10;99.90;;;;;;4921317;29;20070;-70
2021/12/09 09:53:11;;;;;;;32.55;18.58;;;2.10;99.90;;;;;;4921377;29;20249;-69
2021/12/09 09:55:37;;;;;;;32.92;18.13;;;2.10;99.90;;;;;;4921019;29;20062;-70
2021/12/09 09:58:04;;;;;;;34.78;18.73;;;2.10;99.90;;;;;;4921819;29;20087;-69
2021/12/09 10:00:31;;;;;;;34.70;19.38;;;2.10;99.90;;;;;;4920952;29;20028;-67
2021/12/09 10:02:59;;;;;;;26.40;14.60;;;2.10;99.90;;;;;;4921384;29;20072;-67
2021/12/09 10:08:13;;;;;;;29.10;14.95;;;2.10;99.90;;;;;;4921242;29;20127;-68
2021/12/09 10:10:41;;;;;;;26.90;15.55;;;2.10;99.90;;;;;;4924937;29;20024;-66
2021/12/09 10:13:09;;;;;;;30.90;17.90;;;2.10;99.90;;;;;;4920594;29;20043;-68
2021/12/09 10:15:40;;;;;;;35.38;19.05;;;2.10;99.90;;;;;;4919799;29;20020;-69
2021/12/09 10:18:07;;;;;;;26.95;16.23;;;2.10;99.90;;;;;;4921949;29;20023;-68
2021/12/09 10:20:50;;;;;;;29.42;17.20;;;2.00;99.90;;;;;;4920605;29;20024;-68
2021/12/09 10:23:30;;;;;;;29.10;16.40;;;2.00;99.90;;;;;;4917185;29;20051;-69
2021/12/09 10:26:14;;;;;;;31.98;18.42;;;2.00;99.90;;;;;;4918241;29;20032;-69
2021/12/09 10:28:44;;;;;;;29.50;17.15;;;2.00;99.90;;;;;;4919267;29;20088;-68
2021/12/09 10:31:15;;;;;;;33.00;18.45;;;2.00;99.90;;;;;;4920824;29;20044;-69
2021/12/09 10:34:03;;;;;;;32.13;19.20;;;2.00;99.90;;;;;;4920735;29;20215;-68
2021/12/09 10:36:51;;;;;;;28.27;17.02;;;1.90;99.90;;;;;;4920618;29;20016;-70
2021/12/09 10:39:25;;;;;;;33.25;17.30;;;1.90;99.90;;;;;;4921599;29;20095;-70
2021/12/09 10:41:52;;;;;;;29.67;17.02;;;2.00;99.90;;;;;;4920345;29;20016;-69
2021/12/09 10:44:28;;;;;;;29.40;15.80;;;1.90;99.90;;;;;;4921435;29;20032;-68
2021/12/09 10:47:04;;;;;;;28.58;16.80;;;1.90;99.90;;;;;;4920085;29;20095;-68
2021/12/09 10:49:35;;;;;;;27.92;16.73;;;1.90;99.90;;;;;;4919492;29;20039;-70
2021/12/09 10:52:19;;;;;;;29.02;15.85;;;1.90;99.90;;;;;;4920034;29;20024;-68
2021/12/09 10:54:45;;;;;;;30.63;16.77;;;1.90;99.90;;;;;;4919882;29;20402;-70
2021/12/09 10:57:30;;;;;;;27.17;15.77;;;2.00;99.90;;;;;;4922991;29;20075;-70
2021/12/09 10:59:57;;;;;;;24.50;12.65;;;2.00;99.90;;;;;;4923898;29;20058;-70
2021/12/09 11:02:24;;;;;;;23.25;12.68;;;2.00;99.90;;;;;;4924270;29;20023;-70
2021/12/09 11:04:58;;;;;;;21.27;12.05;;;2.10;99.90;;;;;;4924420;29;20024;-69
2021/12/09 11:07:28;;;;;;;21.58;11.63;;;2.10;99.90;;;;;;4924691;29;20050;-71
2021/12/09 11:10:19;;;;;;;19.67;12.45;;;2.10;99.90;;;;;;4923235;29;20033;-72
2021/12/09 11:12:57;;;;;;;17.58;10.63;;;2.10;99.90;;;;;;4922519;29;20084;-68
2021/12/09 11:15:56;;;;;;;20.38;12.50;;;2.20;99.90;;;;;;4924513;29;20023;-70
2021/12/09 11:18:52;;;;;;;21.58;12.40;;;2.10;99.90;;;;;;4924015;29;20024;-70
2021/12/09 11:21:29;;;;;;;19.45;12.20;;;2.10;99.90;;;;;;4919619;29;20039;-71
2021/12/09 11:24:16;;;;;;;21.88;12.68;;;2.10;99.90;;;;;;4924092;29;20100;-72
2021/12/09 11:27:01;;;;;;;23.30;12.73;;;2.10;99.90;;;;;;4923605;29;20088;-72
2021/12/09 11:29:42;;;;;;;20.50;12.18;;;2.10;99.90;;;;;;4922239;29;20271;-71
2021/12/09 11:32:19;;;;;;;23.73;13.65;;;2.10;99.90;;;;;;4924141;29;20016;-70
2021/12/09 11:35:10;;;;;;;27.00;14.18;;;2.10;99.90;;;;;;4922630;29;20020;-72
2021/12/09 11:37:43;;;;;;;21.27;13.35;;;2.10;99.90;;;;;;4922205;29;20063;-71
2021/12/09 11:40:23;;;;;;;22.48;13.43;;;2.10;99.90;;;;;;4924102;29;20035;-71
2021/12/09 11:42:59;;;;;;;21.27;12.98;;;2.10;99.90;;;;;;4923655;29;20039;-72
2021/12/09 11:45:49;;;;;;;22.20;11.85;;;2.00;99.90;;;;;;4922874;29;20024;-71
2021/12/09 11:48:16;;;;;;;20.60;12.07;;;2.00;99.90;;;;;;4924275;29;20048;-74
2021/12/09 11:50:48;;;;;;;21.42;13.35;;;2.00;99.90;;;;;;4921650;29;20034;-72
2021/12/09 11:53:18;;;;;;;20.05;12.18;;;2.00;99.90;;;;;;4923015;29;20100;-74
2021/12/09 11:55:51;;;;;;;23.60;13.23;;;2.10;99.90;;;;;;4938658;29;20016;-72
2021/12/09 11:58:25;;;;;;;21.48;12.40;;;2.00;99.90;;;;;;4923361;29;20027;-72
2021/12/09 12:12:57;;;;;;;21.52;13.40;;;2.00;99.90;;;;;;4922653;29;20047;-70
2021/12/09 12:18:41;;;;;;;18.90;12.20;;;2.00;99.90;;;;;;4923519;29;20075;-71
2021/12/09 12:32:21;;;;;;;20.25;11.95;;;2.00;99.90;;;;;;4922310;29;20044;-71
2021/12/09 12:40:43;;;;;;;23.42;12.38;;;2.00;99.90;;;;;;4922899;29;20052;-82
2021/12/09 12:43:17;;;;;;;19.15;11.48;;;2.00;99.90;;;;;;4921548;29;20170;-72
2021/12/09 12:51:06;;;;;;;18.55;11.35;;;2.00;99.90;;;;;;4922720;29;20028;-71
2021/12/09 12:53:38;;;;;;;20.08;11.63;;;2.00;99.90;;;;;;4921899;29;20024;-71
2021/12/09 12:56:23;;;;;;;23.25;13.88;;;2.00;99.90;;;;;;4921348;29;20151;-70
2021/12/09 12:59:16;;;;;;;19.65;11.60;;;2.00;99.90;;;;;;4920913;29;20434;-70
2021/12/09 13:01:49;;;;;;;20.02;12.32;;;2.00;99.90;;;;;;4920662;29;20024;-70
2021/12/09 13:04:40;;;;;;;19.75;12.82;;;2.00;99.90;;;;;;4922295;29;20036;-70
2021/12/09 13:07:26;;;;;;;17.63;11.38;;;2.00;99.90;;;;;;4920875;29;20112;-74
2021/12/09 13:10:29;;;;;;;19.73;11.20;;;2.00;99.90;;;;;;4922107;29;20027;-73
2021/12/09 13:16:38;;;;;;;20.63;12.10;;;2.00;99.90;;;;;;4921516;29;20214;-73
2021/12/09 13:21:44;;;;;;;25.77;14.38;;;2.00;99.90;;;;;;4922198;29;20024;-71
2021/12/09 13:24:27;;;;;;;20.15;12.20;;;2.00;99.90;;;;;;4917266;29;20039;-70
2021/12/09 13:29:59;;;;;;;19.00;11.88;;;2.00;99.90;;;;;;4921287;29;20268;-72
2021/12/09 13:33:17;;;;;;;19.33;11.38;;;2.00;99.90;;;;;;4922356;29;20032;-73
2021/12/09 13:47:07;;;;;;;19.73;11.52;;;2.00;99.90;;;;;;4921173;29;20031;-73
2021/12/09 13:55:15;;;;;;;18.88;11.85;;;2.00;99.90;;;;;;4921960;29;20090;-73
2021/12/09 13:57:57;;;;;;;22.02;13.45;;;1.90;99.90;;;;;;4920049;29;20024;-73